createdAt,value
2023-01-06T00:01:27.779Z,8.65
2023-01-06T00:03:59.278Z,9.80
2023-01-06T00:06:29.560Z,9.52
2023-01-06T00:09:02.655Z,9.98
2023-01-06T00:11:30.971Z,18.13
2023-01-06T00:14:00.305Z,10.05
2023-01-06T00:16:28.121Z,8.85
2023-01-06T00:18:58.596Z,8.88
2023-01-06T00:21:27.438Z,8.80
2023-01-06T00:23:55.570Z,8.60
2023-01-06T00:26:24.157Z,8.60
2023-01-06T00:28:56.926Z,7.53
2023-01-06T00:31:26.934Z,9.68
2023-01-06T00:33:58.456Z,9.52
2023-01-06T00:36:26.362Z,9.55
2023-01-06T00:38:54.259Z,9.63
2023-01-06T00:41:40.768Z,10.75
2023-01-06T00:44:09.340Z,9.70
2023-01-06T00:46:37.258Z,8.65
2023-01-06T00:49:07.436Z,8.20
2023-01-06T00:51:39.108Z,7.45
2023-01-06T00:54:26.525Z,7.63
2023-01-06T00:56:55.561Z,7.03
2023-01-06T00:59:26.276Z,6.53
2023-01-06T01:01:58.087Z,8.02
2023-01-06T01:04:27.223Z,8.20
2023-01-06T01:06:55.572Z,6.82
2023-01-06T01:09:27.326Z,8.07
2023-01-06T01:12:10.179Z,7.38
2023-01-06T01:14:46.931Z,6.13
2023-01-06T01:17:25.037Z,5.95
2023-01-06T01:19:55.746Z,5.70
2023-01-06T01:22:24.953Z,5.47
2023-01-06T01:24:52.914Z,6.32
2023-01-06T01:27:20.688Z,6.82
2023-01-06T01:29:48.672Z,6.00
2023-01-06T01:32:16.343Z,6.05
2023-01-06T01:34:44.645Z,6.43
2023-01-06T01:37:12.342Z,6.47
2023-01-06T01:39:40.249Z,7.32
2023-01-06T01:42:18.138Z,6.28
2023-01-06T01:45:17.775Z,6.25
2023-01-06T01:48:01.169Z,5.85
2023-01-06T01:50:37.031Z,5.45
2023-01-06T01:53:12.738Z,5.35
2023-01-06T01:55:41.263Z,5.47
2023-01-06T01:58:10.374Z,6.75
2023-01-06T02:00:40.014Z,5.63
2023-01-06T02:03:07.994Z,5.90
2023-01-06T02:05:42.842Z,6.03
2023-01-06T02:08:34.171Z,6.30
2023-01-06T02:11:03.350Z,9.20
2023-01-06T02:13:33.337Z,6.13
2023-01-06T02:16:34.435Z,7.80
2023-01-06T02:19:47.332Z,8.95
2023-01-06T02:22:49.074Z,8.00
2023-01-06T02:26:04.041Z,7.25
2023-01-06T02:29:27.211Z,7.18
2023-01-06T02:32:30.109Z,7.57
2023-01-06T02:35:31.324Z,6.93
2023-01-06T02:38:31.869Z,6.50
2023-01-06T02:41:12.515Z,5.65
2023-01-06T02:44:10.642Z,5.47
2023-01-06T02:47:15.341Z,6.27
2023-01-06T02:50:22.157Z,5.30
2023-01-06T02:53:26.997Z,5.57
2023-01-06T02:55:58.888Z,4.88
2023-01-06T02:59:02.399Z,4.72
2023-01-06T03:01:42.434Z,4.93
2023-01-06T03:04:21.183Z,6.35
2023-01-06T03:06:52.475Z,5.10
2023-01-06T03:09:27.143Z,5.88
2023-01-06T03:11:54.918Z,5.75
2023-01-06T03:16:59.381Z,6.63
2023-01-06T03:19:32.350Z,5.72
2023-01-06T03:22:03.108Z,5.78
2023-01-06T03:24:31.057Z,4.93
2023-01-06T03:26:59.876Z,5.03
2023-01-06T03:29:29.775Z,4.00
2023-01-06T03:32:12.215Z,4.60
2023-01-06T03:35:18.461Z,5.15
2023-01-06T03:38:01.073Z,4.03
2023-01-06T03:41:00.506Z,4.93
2023-01-06T03:46:44.730Z,4.22
2023-01-06T03:49:25.844Z,4.30
2023-01-06T03:52:26.358Z,5.03
2023-01-06T03:55:31.522Z,4.07
2023-01-06T03:58:02.190Z,3.55
2023-01-06T04:00:37.075Z,5.25
2023-01-06T04:03:14.027Z,4.63
2023-01-06T04:05:43.919Z,4.28
2023-01-06T04:08:11.962Z,3.88
2023-01-06T04:10:41.622Z,2.88
2023-01-06T04:13:09.496Z,4.05
2023-01-06T04:15:37.170Z,4.38
2023-01-06T04:18:08.114Z,4.78
2023-01-06T04:20:38.885Z,4.55
2023-01-06T04:23:17.462Z,13.50
2023-01-06T04:25:45.545Z,4.85
2023-01-06T04:28:27.116Z,3.13
2023-01-06T04:31:01.936Z,3.95
2023-01-06T04:33:33.425Z,4.35
2023-01-06T04:36:04.490Z,4.88
2023-01-06T04:38:33.323Z,5.40
2023-01-06T04:41:01.016Z,4.78
2023-01-06T04:43:28.926Z,5.57
2023-01-06T04:45:59.510Z,5.53
2023-01-06T04:48:27.518Z,4.95
2023-01-06T04:51:07.201Z,4.85
2023-01-06T04:53:37.644Z,4.70
2023-01-06T04:56:09.085Z,4.82
2023-01-06T04:58:38.053Z,5.50
2023-01-06T05:01:10.580Z,6.43
2023-01-06T05:03:40.196Z,7.80
2023-01-06T05:06:11.870Z,5.55
2023-01-06T05:08:41.894Z,5.22
2023-01-06T05:13:42.987Z,5.18
2023-01-06T05:16:26.176Z,5.75
2023-01-06T05:18:55.013Z,5.93
2023-01-06T05:21:27.226Z,5.90
2023-01-06T05:23:55.980Z,5.97
2023-01-06T05:26:26.941Z,6.20
2023-01-06T05:28:55.447Z,6.60
2023-01-06T05:31:24.529Z,5.15
2023-01-06T05:34:00.955Z,7.05
2023-01-06T05:36:28.666Z,7.40
2023-01-06T05:38:56.569Z,7.25
2023-01-06T05:41:24.074Z,7.10
2023-01-06T05:43:51.995Z,6.88
2023-01-06T05:46:19.623Z,7.45
2023-01-06T05:48:47.557Z,6.97
2023-01-06T05:51:16.629Z,7.25
2023-01-06T05:53:47.330Z,7.38
2023-01-06T05:56:21.710Z,6.72
2023-01-06T05:58:53.416Z,6.18
2023-01-06T06:01:31.308Z,5.82
2023-01-06T06:03:59.493Z,6.00
2023-01-06T06:06:29.597Z,5.68
2023-01-06T06:08:58.766Z,5.82
2023-01-06T06:11:26.368Z,6.18
2023-01-06T06:13:56.690Z,5.45
2023-01-06T06:16:27.944Z,5.63
2023-01-06T06:18:59.324Z,5.78
2023-01-06T06:21:30.328Z,5.05
2023-01-06T06:24:00.069Z,5.10
2023-01-06T06:26:28.156Z,4.93
2023-01-06T06:28:55.936Z,5.85
2023-01-06T06:31:27.522Z,6.40
2023-01-06T06:33:59.150Z,6.00
2023-01-06T06:36:28.685Z,5.65
2023-01-06T06:39:15.653Z,6.90
2023-01-06T06:41:43.285Z,6.70
2023-01-06T06:44:11.205Z,6.25
2023-01-06T06:46:38.829Z,6.13
2023-01-06T06:49:06.798Z,6.85
2023-01-06T06:51:35.245Z,5.45
2023-01-06T06:54:04.825Z,6.32
2023-01-06T06:56:32.507Z,5.72
2023-01-06T06:59:00.528Z,4.78
2023-01-06T07:01:28.295Z,5.70
2023-01-06T07:03:56.241Z,6.25
2023-01-06T07:06:28.798Z,6.90
2023-01-06T07:08:57.318Z,7.20
2023-01-06T07:11:24.904Z,6.13
2023-01-06T07:13:52.910Z,5.55
2023-01-06T07:16:23.215Z,6.43
2023-01-06T07:18:51.127Z,5.80
2023-01-06T07:21:18.964Z,5.90
2023-01-06T07:23:46.870Z,6.30
2023-01-06T07:26:15.828Z,6.22
2023-01-06T07:28:43.955Z,6.28
2023-01-06T07:31:11.861Z,5.97
2023-01-06T07:33:39.798Z,6.53
2023-01-06T07:36:08.196Z,6.93
2023-01-06T07:38:36.221Z,6.30
2023-01-06T07:41:03.843Z,6.68
2023-01-06T07:43:31.748Z,6.63
2023-01-06T07:45:59.443Z,6.20
2023-01-06T07:48:27.406Z,5.38
2023-01-06T07:50:55.036Z,6.85
2023-01-06T07:53:23.281Z,6.22
2023-01-06T07:55:52.979Z,5.47
2023-01-06T07:58:23.946Z,6.50
2023-01-06T08:00:52.173Z,6.13
2023-01-06T08:03:20.192Z,5.30
2023-01-06T08:05:47.903Z,5.20
2023-01-06T08:08:15.838Z,5.47
2023-01-06T08:10:44.100Z,4.72
2023-01-06T08:13:12.116Z,4.67
2023-01-06T08:15:40.433Z,5.40
2023-01-06T08:18:08.748Z,4.23
2023-01-06T08:20:36.404Z,4.65
2023-01-06T08:23:04.358Z,4.30
2023-01-06T08:25:31.942Z,4.97
2023-01-06T08:28:00.491Z,3.92
2023-01-06T08:30:29.542Z,4.22
2023-01-06T08:32:59.550Z,4.60
2023-01-06T08:35:27.666Z,3.75
2023-01-06T08:37:55.781Z,3.67
2023-01-06T08:40:23.778Z,3.30
2023-01-06T08:42:51.939Z,3.63
2023-01-06T08:45:19.492Z,3.05
2023-01-06T08:47:47.760Z,2.35
2023-01-06T08:50:15.605Z,3.15
2023-01-06T08:52:43.586Z,2.95
2023-01-06T08:55:11.134Z,2.05
2023-01-06T08:57:39.769Z,1.75
2023-01-06T09:00:08.295Z,2.90
2023-01-06T09:02:36.297Z,2.63
2023-01-06T09:05:06.231Z,2.92
2023-01-06T09:07:34.243Z,3.78
2023-01-06T09:10:44.123Z,2.90
2023-01-06T09:13:15.120Z,3.17
2023-01-06T09:15:45.247Z,3.53
2023-01-06T09:18:13.043Z,3.50
2023-01-06T09:20:40.769Z,3.70
2023-01-06T09:23:08.921Z,3.90
2023-01-06T09:25:36.494Z,5.30
2023-01-06T09:28:04.409Z,4.32
2023-01-06T09:30:32.319Z,5.22
2023-01-06T09:33:00.286Z,3.65
2023-01-06T09:35:27.896Z,3.72
2023-01-06T09:37:56.025Z,2.88
2023-01-06T09:40:41.647Z,1.42
2023-01-06T09:43:44.367Z,1.83
2023-01-06T09:46:16.770Z,1.38
2023-01-06T09:49:25.918Z,1.05
2023-01-06T09:52:03.327Z,1.02
2023-01-06T09:54:42.255Z,1.27
2023-01-06T09:57:20.614Z,1.30
2023-01-06T10:00:10.936Z,1.33
2023-01-06T10:02:42.529Z,0.47
2023-01-06T10:05:28.316Z,1.27
2023-01-06T10:08:39.169Z,0.82
2023-01-06T10:11:31.449Z,1.02
2023-01-06T10:14:53.022Z,0.90
2023-01-06T10:17:47.871Z,0.82
2023-01-06T10:21:10.347Z,1.73
2023-01-06T10:24:39.857Z,0.90
2023-01-06T10:28:03.738Z,1.00
2023-01-06T10:30:44.947Z,1.35
2023-01-06T10:33:31.159Z,1.65
2023-01-06T10:36:01.908Z,1.33
2023-01-06T10:38:40.379Z,1.00
2023-01-06T10:41:32.804Z,1.30
2023-01-06T10:44:00.861Z,2.28
2023-01-06T10:46:36.133Z,1.02
2023-01-06T10:49:08.539Z,0.90
2023-01-06T10:51:40.280Z,1.33
2023-01-06T10:54:15.524Z,1.65
2023-01-06T10:57:01.603Z,0.93
2023-01-06T10:59:30.624Z,1.83
2023-01-06T11:01:59.154Z,2.17
2023-01-06T11:04:28.274Z,1.00
2023-01-06T11:07:01.502Z,1.95
2023-01-06T11:09:41.485Z,1.00
2023-01-06T11:12:17.268Z,0.88
2023-01-06T11:15:02.730Z,1.00
2023-01-06T11:17:31.623Z,0.95
2023-01-06T11:20:14.430Z,0.60
2023-01-06T11:22:43.832Z,0.52
2023-01-06T11:25:20.959Z,1.00
2023-01-06T11:28:09.735Z,0.65
2023-01-06T11:31:09.309Z,1.63
2023-01-06T11:34:02.002Z,1.25
2023-01-06T11:36:33.250Z,0.88
2023-01-06T11:39:15.487Z,1.05
2023-01-06T11:41:49.859Z,0.98
2023-01-06T11:44:27.904Z,0.80
2023-01-06T11:47:15.942Z,1.25
2023-01-06T11:49:49.146Z,3.00
2023-01-06T11:52:31.564Z,0.77
2023-01-06T11:55:08.858Z,1.65
2023-01-06T11:57:55.636Z,1.10
2023-01-06T12:01:06.440Z,1.50
2023-01-06T12:03:46.383Z,1.20
2023-01-06T12:06:14.487Z,1.77
2023-01-06T12:09:06.623Z,1.15
2023-01-06T12:11:53.009Z,0.65
2023-01-06T12:14:30.585Z,0.90
2023-01-06T12:17:19.263Z,1.17
2023-01-06T12:20:06.136Z,0.98
2023-01-06T12:22:59.285Z,0.90
2023-01-06T12:25:45.348Z,1.20
2023-01-06T12:28:35.476Z,0.88
2023-01-06T12:31:51.547Z,1.70
2023-01-06T12:34:34.659Z,1.50
2023-01-06T12:37:31.849Z,1.50
2023-01-06T12:40:23.850Z,1.80
2023-01-06T12:43:15.693Z,1.65
2023-01-06T12:46:02.912Z,1.20
2023-01-06T12:48:58.396Z,1.27
2023-01-06T12:51:50.110Z,1.25
2023-01-06T12:54:38.338Z,1.10
2023-01-06T12:57:54.972Z,1.20
2023-01-06T13:00:49.581Z,1.50
2023-01-06T13:03:20.770Z,2.17
2023-01-06T13:06:10.139Z,1.52
2023-01-06T13:08:45.881Z,1.40
2023-01-06T13:11:52.670Z,1.63
2023-01-06T13:14:47.785Z,2.13
2023-01-06T13:17:42.304Z,1.40
2023-01-06T13:20:33.400Z,1.52
2023-01-06T13:23:32.895Z,1.02
2023-01-06T13:26:36.334Z,1.10
2023-01-06T13:29:06.512Z,1.33
2023-01-06T13:32:08.013Z,1.95
2023-01-06T13:34:47.862Z,1.90
2023-01-06T13:37:57.138Z,1.23
2023-01-06T13:40:29.823Z,1.35
2023-01-06T13:43:22.168Z,2.35
2023-01-06T13:45:56.493Z,2.15
2023-01-06T13:48:30.960Z,1.70
2023-01-06T13:51:09.356Z,3.08
2023-01-06T13:53:42.868Z,1.95
2023-01-06T13:56:13.641Z,2.17
2023-01-06T13:58:44.256Z,2.83
2023-01-06T14:01:19.034Z,2.45
2023-01-06T14:03:51.819Z,2.17
2023-01-06T14:06:22.475Z,2.90
2023-01-06T14:08:57.070Z,2.53
2023-01-06T14:11:39.402Z,2.15
2023-01-06T14:14:30.032Z,2.95
2023-01-06T14:16:58.603Z,2.55
2023-01-06T14:19:38.642Z,2.28
2023-01-06T14:22:22.044Z,2.30
2023-01-06T14:25:01.408Z,2.35
2023-01-06T14:27:47.070Z,3.53
2023-01-06T14:30:31.906Z,3.33
2023-01-06T14:33:06.790Z,3.60
2023-01-06T14:35:44.346Z,5.40
2023-01-06T14:38:31.782Z,5.13
2023-01-06T14:41:32.622Z,5.65
2023-01-06T14:44:12.690Z,5.93
2023-01-06T14:46:55.108Z,6.97
2023-01-06T14:49:46.658Z,5.88
2023-01-06T14:52:23.203Z,5.90
2023-01-06T14:54:53.547Z,5.82
2023-01-06T14:57:42.788Z,8.63
2023-01-06T15:00:27.833Z,7.10
2023-01-06T15:03:19.544Z,8.85
2023-01-06T15:05:47.882Z,9.00
2023-01-06T15:08:19.429Z,9.13
2023-01-06T15:10:51.646Z,8.90
2023-01-06T15:13:32.731Z,8.75
2023-01-06T15:16:38.087Z,10.13
2023-01-06T15:19:15.337Z,14.23
2023-01-06T15:21:46.880Z,13.07
2023-01-06T15:24:22.766Z,10.20
2023-01-06T15:26:53.117Z,12.20
2023-01-06T15:29:24.969Z,12.73
2023-01-06T15:31:54.585Z,13.15
2023-01-06T15:34:39.797Z,13.55
2023-01-06T15:37:15.231Z,10.60
2023-01-06T15:39:44.189Z,14.73
2023-01-06T15:42:13.886Z,17.30
2023-01-06T15:44:53.181Z,15.18
2023-01-06T15:47:42.443Z,12.27
2023-01-06T15:50:20.362Z,12.32
2023-01-06T15:52:57.421Z,12.35
2023-01-06T15:55:31.968Z,14.10
2023-01-06T15:58:09.519Z,14.15
2023-01-06T16:00:50.639Z,14.63
2023-01-06T16:03:25.831Z,17.50
2023-01-06T16:06:12.109Z,21.95
2023-01-06T16:08:44.227Z,24.50
2023-01-06T16:11:38.276Z,29.17
2023-01-06T16:14:35.155Z,27.75
2023-01-06T16:17:06.165Z,26.77
2023-01-06T16:19:36.511Z,22.80
2023-01-06T16:22:48.474Z,21.38
2023-01-06T16:25:32.985Z,24.20
2023-01-06T16:28:05.024Z,25.25
2023-01-06T16:30:36.623Z,32.72
2023-01-06T16:33:05.604Z,34.55
2023-01-06T16:35:35.006Z,38.75
2023-01-06T16:38:03.572Z,36.67
2023-01-06T16:40:32.560Z,37.92
2023-01-06T16:43:02.526Z,37.85
2023-01-06T16:45:42.806Z,37.15
2023-01-06T16:48:17.325Z,33.65
2023-01-06T16:50:50.670Z,33.67
2023-01-06T16:53:23.480Z,29.42
2023-01-06T16:55:54.179Z,25.70
2023-01-06T16:58:30.035Z,26.08
2023-01-06T17:01:08.472Z,26.83
2023-01-06T17:03:38.348Z,30.40
2023-01-06T17:06:32.588Z,19.80
2023-01-06T17:09:19.159Z,21.05
2023-01-06T17:11:48.334Z,40.95
2023-01-06T17:14:22.194Z,36.13
2023-01-06T17:16:53.279Z,31.42
2023-01-06T17:19:32.472Z,33.65
2023-01-06T17:22:30.710Z,31.42
2023-01-06T17:25:09.037Z,30.48
2023-01-06T17:27:36.677Z,54.33
2023-01-06T17:30:20.074Z,71.15
2023-01-06T17:32:48.215Z,72.22
2023-01-06T17:35:25.990Z,26.50
2023-01-06T17:37:57.382Z,24.95
2023-01-06T17:40:38.623Z,24.63
2023-01-06T17:43:24.971Z,31.27
2023-01-06T17:45:53.113Z,26.98
2023-01-06T17:48:20.802Z,25.02
2023-01-06T17:50:56.992Z,28.05
2023-01-06T17:53:54.908Z,33.70
2023-01-06T17:56:24.070Z,34.45
2023-01-06T17:58:52.288Z,48.70
2023-01-06T18:01:30.249Z,64.90
2023-01-06T18:04:00.142Z,69.57
2023-01-06T18:06:30.608Z,65.63
2023-01-06T18:09:05.949Z,45.00
2023-01-06T18:11:49.822Z,54.80
2023-01-06T18:14:32.520Z,61.28
2023-01-06T18:17:25.430Z,59.83
2023-01-06T18:19:53.599Z,56.22
2023-01-06T18:22:25.654Z,57.80
2023-01-06T18:24:58.060Z,51.00
2023-01-06T18:27:33.380Z,51.00
2023-01-06T18:30:27.982Z,43.78
2023-01-06T18:32:56.294Z,42.15
2023-01-06T18:35:28.785Z,42.03
2023-01-06T18:38:02.496Z,40.55
2023-01-06T18:40:31.664Z,43.25
2023-01-06T18:43:02.990Z,42.50
2023-01-06T18:45:36.129Z,42.55
2023-01-06T18:48:29.211Z,42.30
2023-01-06T18:51:00.251Z,43.13
2023-01-06T18:53:47.330Z,43.67
2023-01-06T18:56:23.791Z,38.97
2023-01-06T18:58:57.705Z,39.00
2023-01-06T19:01:47.313Z,37.00
2023-01-06T19:04:19.447Z,40.65
2023-01-06T19:06:54.565Z,38.65
2023-01-06T19:09:47.858Z,40.08
2023-01-06T19:12:36.257Z,44.53
2023-01-06T19:15:23.431Z,51.28
2023-01-06T19:17:53.942Z,38.95
2023-01-06T19:20:22.939Z,40.15
2023-01-06T19:22:50.730Z,60.70
2023-01-06T19:25:43.195Z,73.55
2023-01-06T19:28:33.059Z,63.50
2023-01-06T19:31:06.099Z,50.83
2023-01-06T19:33:34.771Z,50.83
2023-01-06T19:36:37.122Z,50.85
2023-01-06T19:39:38.145Z,47.80
2023-01-06T19:42:30.242Z,46.22
2023-01-06T19:45:01.621Z,35.03
2023-01-06T19:47:37.929Z,34.97
2023-01-06T19:50:35.285Z,37.78
2023-01-06T19:53:03.307Z,45.47
2023-01-06T19:55:33.350Z,45.05
2023-01-06T19:58:12.394Z,40.50
2023-01-06T20:00:50.579Z,40.72
2023-01-06T20:03:35.953Z,42.53
2023-01-06T20:06:04.556Z,46.40
2023-01-06T20:08:32.457Z,45.47
2023-01-06T20:11:00.245Z,45.80
2023-01-06T20:13:28.092Z,45.15
2023-01-06T20:15:56.253Z,46.38
2023-01-06T20:18:24.323Z,41.95
2023-01-06T20:20:51.991Z,39.50
2023-01-06T20:23:19.925Z,38.15
2023-01-06T20:25:47.573Z,35.97
2023-01-06T20:28:16.799Z,33.63
2023-01-06T20:30:46.350Z,34.38
2023-01-06T20:37:03.681Z,24.83
2023-01-06T20:39:31.613Z,28.50
2023-01-06T20:42:00.424Z,31.20
2023-01-06T20:44:28.355Z,26.42
2023-01-06T20:46:55.860Z,24.63
2023-01-06T20:49:23.414Z,20.00
2023-01-06T20:51:51.304Z,19.92
2023-01-06T20:54:19.110Z,20.85
2023-01-06T20:56:47.003Z,19.00
2023-01-06T20:59:14.801Z,19.25
2023-01-06T21:01:42.910Z,24.92
2023-01-06T21:04:10.856Z,29.33
2023-01-06T21:06:38.720Z,29.70
2023-01-06T21:09:06.295Z,24.75
2023-01-06T21:11:34.271Z,22.35
2023-01-06T21:14:01.930Z,22.38
2023-01-06T21:16:29.738Z,21.73
2023-01-06T21:19:00.357Z,21.25
2023-01-06T21:21:28.267Z,21.85
2023-01-06T21:23:56.371Z,19.15
2023-01-06T21:26:24.234Z,21.42
2023-01-06T21:28:51.968Z,22.38
2023-01-06T21:31:19.854Z,24.90
2023-01-06T21:33:47.433Z,28.52
2023-01-06T21:36:16.149Z,25.55
2023-01-06T21:38:43.809Z,24.95
2023-01-06T21:41:30.601Z,23.30
2023-01-06T21:43:58.320Z,19.90
2023-01-06T21:46:26.405Z,18.58
2023-01-06T21:48:54.089Z,17.30
2023-01-06T21:51:22.378Z,17.27
2023-01-06T21:53:49.973Z,15.60
2023-01-06T21:56:18.176Z,16.17
2023-01-06T21:58:45.712Z,17.48
2023-01-06T22:01:14.620Z,17.70
2023-01-06T22:03:42.451Z,16.98
2023-01-06T22:06:11.031Z,19.63
2023-01-06T22:08:39.101Z,20.55
2023-01-06T22:11:08.355Z,21.80
2023-01-06T22:13:36.380Z,21.70
2023-01-06T22:16:05.011Z,24.00
2023-01-06T22:18:34.342Z,25.33
2023-01-06T22:21:03.498Z,23.20
2023-01-06T22:26:00.295Z,19.70
2023-01-06T22:28:28.513Z,19.67
2023-01-06T22:30:56.883Z,19.25
2023-01-06T22:33:24.858Z,18.20
2023-01-06T22:35:57.722Z,18.05
2023-01-06T22:38:25.723Z,14.90
2023-01-06T22:40:53.611Z,15.77
2023-01-06T22:43:22.542Z,16.02
2023-01-06T22:45:56.720Z,14.98
2023-01-06T22:48:25.267Z,14.32
2023-01-06T22:51:01.974Z,14.80
2023-01-06T22:53:31.591Z,13.32
2023-01-06T22:56:06.053Z,13.75
2023-01-06T22:58:37.595Z,14.05
2023-01-06T23:01:07.408Z,14.95
2023-01-06T23:03:35.759Z,15.07
2023-01-06T23:06:11.302Z,16.73
2023-01-06T23:08:51.071Z,15.25
2023-01-06T23:11:28.090Z,16.67
2023-01-06T23:13:58.093Z,15.65
2023-01-06T23:16:27.266Z,16.38
2023-01-06T23:18:55.297Z,15.18
2023-01-06T23:21:26.735Z,17.60
2023-01-06T23:23:54.953Z,17.77
2023-01-06T23:26:30.658Z,18.45
2023-01-06T23:28:58.772Z,22.10
2023-01-06T23:31:35.714Z,22.65
2023-01-06T23:34:10.075Z,20.63
2023-01-06T23:36:38.739Z,18.58
2023-01-06T23:39:08.360Z,16.75
2023-01-06T23:41:37.735Z,14.57
2023-01-06T23:44:06.550Z,14.00
2023-01-06T23:46:39.883Z,13.93
2023-01-06T23:49:10.089Z,13.30
2023-01-06T23:51:39.339Z,11.27
2023-01-06T23:54:07.866Z,12.75
2023-01-06T23:56:37.424Z,12.65
2023-01-06T23:59:07.713Z,11.77
